Time;durP1;ratioP1;P1;durP2;ratioP2;P2;SDS_P1;SDS_P2;PMS_P1;PMS_P2;Temp;Humidity;BMP_temperature;BMP_pressure;BME280_temperature;BME280_humidity;BME280_pressure;Samples;Min_cycle;Max_cycle;Signal;HPM_P1;HPM_P2
2020/12/03 00:07:06;;;;;;;48.7;33;;;;;;;-5.51;83.80859;98868.02;;;;
2020/12/03 00:17:05;;;;;;;45.7;28.3;;;;;;;-5.36;83.46973;98873.92;;;;
2020/12/03 00:27:00;;;;;;;34.6;27.3;;;;;;;-5.31;82.43848;98854.95;;;;
2020/12/03 00:36:57;;;;;;;51.1;31.9;;;;;;;-5.59;84.08496;98836.71;;;;
2020/12/03 00:46:54;;;;;;;41.8;30.9;;;;;;;-5.44;83.5625;98845.2;;;;
2020/12/03 00:56:51;;;;;;;58;34.1;;;;;;;-5.74;84.85645;98838.67;;;;
2020/12/03 01:06:48;;;;;;;49.8;29.5;;;;;;;-5.5;83.7666;98813.69;;;;
2020/12/03 01:16:46;;;;;;;46.3;32.2;;;;;;;-5.53;83.63086;98809.66;;;;
2020/12/03 01:26:43;;;;;;;51.8;34.5;;;;;;;-5.91;84.98633;98804.13;;;;
2020/12/03 01:36:40;;;;;;;74.2;38.4;;;;;;;-5.98;85.35059;98769.2;;;;
2020/12/03 01:46:37;;;;;;;58;39.4;;;;;;;-6.24;85.53613;98754.16;;;;
2020/12/03 01:56:51;;;;;;;53.7;29.9;;;;;;;-6.04;85.07813;98753.44;;;;
2020/12/03 02:06:31;;;;;;;50.3;34.5;;;;;;;-6.04;84.40723;98741.14;;;;
2020/12/03 02:16:28;;;;;;;44.7;29.9;;;;;;;-6.29;83.85938;98717.25;;;;
2020/12/03 02:26:26;;;;;;;56.1;33.9;;;;;;;-6.67;85.33008;98695.93;;;;
2020/12/03 02:36:23;;;;;;;56.6;33.9;;;;;;;-6.65;86.27344;98700.95;;;;
2020/12/03 02:46:20;;;;;;;50.9;35.9;;;;;;;-6.59;86.03613;98678.42;;;;
2020/12/03 02:56:17;;;;;;;59.5;36.5;;;;;;;-6.29;85.29785;98709.38;;;;
2020/12/03 03:06:14;;;;;;;61.4;34.9;;;;;;;-6.28;84.26172;98724.09;;;;
2020/12/03 03:16:11;;;;;;;51.1;29.3;;;;;;;-6.18;83.4707;98716.66;;;;
2020/12/03 03:26:08;;;;;;;49.3;32;;;;;;;-6.26;83.62793;98703.73;;;;
2020/12/03 03:36:08;;;;;;;61.8;34.1;;;;;;;-6.22;83.30859;98698.91;;;;
2020/12/03 03:46:02;;;;;;;56.7;34.1;;;;;;;-6.31;84.14844;98679.09;;;;
2020/12/03 03:55:59;;;;;;;59.4;29.7;;;;;;;-6.22;84.7373;98656.95;;;;
2020/12/03 04:05:56;;;;;;;53;33.5;;;;;;;-6.39;85.58105;98642.59;;;;
2020/12/03 04:15:53;;;;;;;50.3;28.9;;;;;;;-6.5;85.95898;98636.11;;;;
2020/12/03 04:25:50;;;;;;;64.7;39.5;;;;;;;-6.69;86.86035;98608.82;;;;
2020/12/03 04:35:50;;;;;;;55.1;32.3;;;;;;;-6.48;86.23145;98607.06;;;;
2020/12/03 04:45:44;;;;;;;56.9;33.1;;;;;;;-6.53;85.91895;98612.91;;;;
2020/12/03 04:55:41;;;;;;;55.6;37.5;;;;;;;-6.57;86.18262;98603.83;;;;
2020/12/03 05:05:39;;;;;;;57;30.2;;;;;;;-6.33;85.00977;98578.86;;;;
2020/12/03 05:15:36;;;;;;;62.8;38.3;;;;;;;-6.54;85.57129;98563.3;;;;
2020/12/03 05:25:33;;;;;;;62.8;37.9;;;;;;;-6.64;86.15625;98538.3;;;;
2020/12/03 05:35:30;;;;;;;57.3;36.2;;;;;;;-6.7;86.30566;98533.05;;;;
2020/12/03 05:45:32;;;;;;;50.5;35.8;;;;;;;-6.58;85.75879;98547.16;;;;
2020/12/03 05:55:30;;;;;;;78.2;41.9;;;;;;;-6.79;86.02832;98553.37;;;;
2020/12/03 06:05:21;;;;;;;54.5;36.5;;;;;;;-6.69;85.14063;98542.5;;;;
2020/12/03 06:15:18;;;;;;;68;38.7;;;;;;;-6.73;85.77148;98526.37;;;;
2020/12/03 06:25:15;;;;;;;61.3;33.7;;;;;;;-6.53;84.69629;98517.75;;;;
2020/12/03 06:35:12;;;;;;;66.5;42.9;;;;;;;-6.57;85.00293;98516.52;;;;
2020/12/03 06:45:09;;;;;;;76;37.4;;;;;;;-6.66;84.88672;98505.41;;;;
2020/12/03 06:55:06;;;;;;;72.5;35;;;;;;;-6.82;84.25098;98472.55;;;;
2020/12/03 07:05:03;;;;;;;75.2;41.2;;;;;;;-6.82;83.9043;98476.98;;;;
2020/12/03 07:15:18;;;;;;;73.8;39.8;;;;;;;-6.53;82.95508;98486.3;;;;
2020/12/03 07:24:57;;;;;;;60.3;33.4;;;;;;;-6.33;81.96875;98495.77;;;;
2020/12/03 07:35:01;;;;;;;83.3;41.4;;;;;;;-6.63;83.19727;98478.84;;;;
2020/12/03 07:44:53;;;;;;;65.9;39.4;;;;;;;-6.34;82.01074;98478.42;;;;
2020/12/03 07:54:48;;;;;;;65.8;39.5;;;;;;;-6.23;81.94531;98474.38;;;;
2020/12/03 08:04:45;;;;;;;88.6;41;;;;;;;-5.88;80.47168;98474.94;;;;
2020/12/03 08:14:51;;;;;;;55.4;36.8;;;;;;;-6.13;81.34668;98451.17;;;;
2020/12/03 08:24:40;;;;;;;63.9;37.4;;;;;;;-6.24;82.35254;98438.67;;;;
2020/12/03 08:34:37;;;;;;;72.7;42.6;;;;;;;-6.01;81.67285;98425.94;;;;
2020/12/03 08:44:34;;;;;;;89.8;57.7;;;;;;;-5.83;81.29492;98415.54;;;;
2020/12/03 08:54:32;;;;;;;76.4;43.2;;;;;;;-5.49;80.76563;98417.05;;;;
2020/12/03 09:04:28;;;;;;;73.8;50.4;;;;;;;-5.48;80.0166;98420.48;;;;
2020/12/03 09:14:26;;;;;;;61.2;39.3;;;;;;;-5.21;79.97363;98393.88;;;;
2020/12/03 09:24:23;;;;;;;72.9;47.9;;;;;;;-5.13;79.41309;98383.09;;;;
2020/12/03 09:34:20;;;;;;;75.5;48.1;;;;;;;-5.09;80.17871;98391.36;;;;
2020/12/03 09:44:18;;;;;;;68.7;47.2;;;;;;;-4.78;79.73828;98399.22;;;;
2020/12/03 09:54:15;;;;;;;60.6;40.9;;;;;;;-4.67;80.15137;98353.84;;;;
2020/12/03 10:04:12;;;;;;;72.3;54.5;;;;;;;-4.12;80.27441;98361.8;;;;
2020/12/03 10:14:28;;;;;;;77.7;46.8;;;;;;;-3.74;78.85449;98369.45;;;;
2020/12/03 10:24:07;;;;;;;65.7;42.1;;;;;;;-3.36;77.78027;98356.8;;;;
2020/12/03 10:34:04;;;;;;;64.7;47.3;;;;;;;-3.23;77.0166;98348.7;;;;
2020/12/03 10:44:04;;;;;;;67.4;46.4;;;;;;;-3.25;76.92578;98355.23;;;;
2020/12/03 10:53:59;;;;;;;63;41.4;;;;;;;-2.95;76.48926;98345.44;;;;
2020/12/03 11:03:57;;;;;;;68.3;46.4;;;;;;;-3.13;77.94336;98325.27;;;;
2020/12/03 11:13:54;;;;;;;75.9;47.3;;;;;;;-3;77.4873;98329.52;;;;
2020/12/03 11:24:03;;;;;;;77;50.2;;;;;;;-3.03;78.0791;98321.27;;;;
2020/12/03 11:33:52;;;;;;;70;42.8;;;;;;;-3.12;78.91602;98279.41;;;;
2020/12/03 11:53:44;;;;;;;65.4;43.4;;;;;;;-2.64;77.38672;98259.95;;;;
2020/12/03 12:03:44;;;;;;;102.4;57.8;;;;;;;-2.7;78.11816;98258.22;;;;
2020/12/03 12:13:39;;;;;;;75.9;51.6;;;;;;;-2.61;78.72754;98238.39;;;;
2020/12/03 12:23:36;;;;;;;85.8;51.5;;;;;;;-2.42;78.23633;98247.75;;;;
2020/12/03 12:33:34;;;;;;;87.8;56.1;;;;;;;-2.51;79.23535;98229.88;;;;
2020/12/03 12:43:31;;;;;;;84.9;55.2;;;;;;;-2.33;79.43457;98208.63;;;;
2020/12/03 12:53:29;;;;;;;94.6;61.7;;;;;;;-2.39;79.80566;98198.98;;;;
2020/12/03 13:03:26;;;;;;;87;63.6;;;;;;;-2.38;80.06055;98169.73;;;;
2020/12/03 13:13:28;;;;;;;78.7;53.2;;;;;;;-2.31;80.45508;98159.84;;;;
2020/12/03 13:23:22;;;;;;;99.8;59.9;;;;;;;-2.37;81.82031;98133.6;;;;
2020/12/03 13:33:19;;;;;;;77.4;50.7;;;;;;;-1.91;80.40918;98129.95;;;;
2020/12/03 13:43:16;;;;;;;60.6;40.9;;;;;;;-1.4;79.08301;98123.63;;;;
2020/12/03 13:53:14;;;;;;;65.9;45.9;;;;;;;-1.26;78.37402;98109.83;;;;
2020/12/03 14:03:12;;;;;;;65.7;49.2;;;;;;;-1.2;78.68164;98108.85;;;;
2020/12/03 14:13:09;;;;;;;63.6;52.1;;;;;;;-1.68;80.0498;98104.19;;;;
2020/12/03 14:23:07;;;;;;;76.8;57.4;;;;;;;-1.85;81.71484;98086.73;;;;
2020/12/03 14:33:04;;;;;;;65.6;51.6;;;;;;;-1.87;81.78711;98068.47;;;;
2020/12/03 14:43:02;;;;;;;67.3;47.1;;;;;;;-2.26;82.80469;98028;;;;
2020/12/03 14:53:00;;;;;;;61.9;46;;;;;;;-1.99;82.49609;98062.48;;;;
2020/12/03 15:02:57;;;;;;;61.8;45.7;;;;;;;-2.07;83.97852;98054.95;;;;
2020/12/03 15:22:53;;;;;;;79;60.8;;;;;;;-2.18;84.84277;98032.86;;;;
2020/12/03 15:32:51;;;;;;;79.2;60.4;;;;;;;-2.1;84.47559;98035.12;;;;
2020/12/03 15:42:48;;;;;;;94.6;63.1;;;;;;;-2.03;84.83984;98029.67;;;;
2020/12/03 15:52:45;;;;;;;81.7;56.4;;;;;;;-1.88;84.38867;98019.36;;;;
2020/12/03 16:02:42;;;;;;;81.4;56;;;;;;;-1.94;84.87988;98001.82;;;;
2020/12/03 16:12:40;;;;;;;72;51;;;;;;;-1.95;86.49512;98000.24;;;;
2020/12/03 16:22:37;;;;;;;51.3;41;;;;;;;-1.76;85.87695;97992.84;;;;
2020/12/03 16:32:35;;;;;;;75.6;51;;;;;;;-1.68;85.33594;97981.87;;;;
2020/12/03 16:42:32;;;;;;;58.6;40.3;;;;;;;-1.71;86.3252;97969.15;;;;
2020/12/03 16:52:30;;;;;;;61.3;42.2;;;;;;;-1.52;85.54102;97970.45;;;;
2020/12/03 17:02:28;;;;;;;78.4;53.3;;;;;;;-1.57;85.8623;97971.2;;;;
2020/12/03 17:12:25;;;;;;;71.5;50.9;;;;;;;-1.57;86.33105;97965.11;;;;
2020/12/03 17:22:23;;;;;;;74;50.9;;;;;;;-1.76;86.70801;97908.32;;;;
2020/12/03 17:32:20;;;;;;;59.8;44.4;;;;;;;-1.49;86.29199;97932.96;;;;
2020/12/03 17:42:18;;;;;;;60.5;36.9;;;;;;;-1.44;85.97461;97935.68;;;;
2020/12/03 17:52:16;;;;;;;61.6;49.2;;;;;;;-1.49;85.61426;97919.75;;;;
2020/12/03 18:02:13;;;;;;;76.2;51.3;;;;;;;-1.64;86.40332;97911.66;;;;
2020/12/03 18:12:11;;;;;;;108;64.5;;;;;;;-1.65;85.98633;97907.41;;;;
2020/12/03 18:22:09;;;;;;;80;52.1;;;;;;;-1.57;85.10547;97906.99;;;;
2020/12/03 18:32:18;;;;;;;105.8;69.6;;;;;;;-1.55;85.00195;97908.34;;;;
2020/12/03 18:42:09;;;;;;;80;60;;;;;;;-1.54;85.05859;97912.58;;;;
2020/12/03 18:52:02;;;;;;;84.5;64.3;;;;;;;-1.56;85.25;97887.43;;;;
2020/12/03 19:02:00;;;;;;;120.2;91.6;;;;;;;-1.46;85.16016;97897.34;;;;
2020/12/03 19:11:58;;;;;;;113.9;82.2;;;;;;;-1.48;85.14746;97892.29;;;;
2020/12/03 19:21:54;;;;;;;126.8;88.3;;;;;;;-1.67;85.82031;97897.11;;;;
2020/12/03 19:31:52;;;;;;;76;47.2;;;;;;;-1.62;85.98047;97888.42;;;;
2020/12/03 19:41:50;;;;;;;91.4;63.6;;;;;;;-1.74;85.75;97906.25;;;;
2020/12/03 19:51:47;;;;;;;92.4;68.2;;;;;;;-1.74;85.13965;97901.77;;;;
2020/12/03 20:01:45;;;;;;;99.3;63.1;;;;;;;-1.96;86.26367;97887.74;;;;
2020/12/03 20:11:43;;;;;;;95.4;61.1;;;;;;;-2.05;86.20215;97892.63;;;;
2020/12/03 20:21:40;;;;;;;91.7;61.4;;;;;;;-2.3;86.1709;97867.74;;;;
2020/12/03 20:31:38;;;;;;;84.1;63.6;;;;;;;-2.5;88.58691;97839.23;;;;
2020/12/03 20:41:37;;;;;;;92.7;66.2;;;;;;;-2.45;88.53125;97831.38;;;;
2020/12/03 20:51:33;;;;;;;65.8;46.4;;;;;;;-2.44;88.24805;97837.45;;;;
2020/12/03 21:01:30;;;;;;;73.1;48.5;;;;;;;-2.38;88.33691;97820.66;;;;
2020/12/03 21:11:28;;;;;;;85;55.1;;;;;;;-2.53;87.53125;97828.37;;;;
2020/12/03 21:21:25;;;;;;;139.1;91.9;;;;;;;-2.79;87.55566;97806.89;;;;
2020/12/03 21:31:23;;;;;;;81;51.9;;;;;;;-2.69;88.27344;97811.51;;;;
2020/12/03 21:41:20;;;;;;;125.1;84;;;;;;;-2.93;87.67676;97796.91;;;;
2020/12/03 21:51:18;;;;;;;78.8;61.5;;;;;;;-2.92;87.33203;97774.79;;;;
2020/12/03 22:01:15;;;;;;;67.2;48.5;;;;;;;-2.81;88.45508;97773.91;;;;
2020/12/03 22:11:13;;;;;;;113.7;70.4;;;;;;;-3;87.42676;97773.34;;;;
2020/12/03 22:21:10;;;;;;;107.7;79.8;;;;;;;-3.09;87.48438;97762.39;;;;
2020/12/03 22:31:07;;;;;;;82.3;59.3;;;;;;;-3.16;86.68555;97759.13;;;;
2020/12/03 22:41:07;;;;;;;113.4;67;;;;;;;-3.31;87.53418;97766.8;;;;
2020/12/03 22:51:02;;;;;;;79.1;53.6;;;;;;;-3.12;87.96484;97741;;;;
2020/12/03 23:01:00;;;;;;;114.4;75.4;;;;;;;-3.26;87.42578;97710.73;;;;
2020/12/03 23:10:57;;;;;;;113.1;79.5;;;;;;;-3.45;87.07129;97694.4;;;;
2020/12/03 23:20:54;;;;;;;110.6;78.7;;;;;;;-3.51;87.10059;97697.2;;;;
2020/12/03 23:30:52;;;;;;;85;56;;;;;;;-3.32;89.65625;97657.19;;;;
2020/12/03 23:40:49;;;;;;;79.3;59.8;;;;;;;-3.01;89.05664;97639.96;;;;
2020/12/03 23:50:47;;;;;;;107;82.4;;;;;;;-3.32;87.27344;97672.99;;;;
